Time;durP1;ratioP1;P1;durP2;ratioP2;P2;SDS_P1;SDS_P2;PMS_P1;PMS_P2;Temp;Humidity;BMP_temperature;BMP_pressure;BME280_temperature;BME280_humidity;BME280_pressure;Samples;Min_cycle;Max_cycle;Signal;HPM_P1;HPM_P2
2021/05/17 00:01:04;;;;;;;0.93;0.80;;;16.60;71.00;;;;;;5052284;28;20076;-42
2021/05/17 00:03:31;;;;;;;0.60;0.60;;;16.60;71.00;;;;;;5052432;28;20501;-46
2021/05/17 00:05:57;;;;;;;0.68;0.50;;;16.60;71.00;;;;;;5052318;28;20049;-45
2021/05/17 00:08:23;;;;;;;0.98;0.70;;;16.60;71.00;;;;;;5051962;28;20041;-48
2021/05/17 00:10:49;;;;;;;0.55;0.55;;;16.60;71.00;;;;;;5052100;28;20497;-41
2021/05/17 00:13:15;;;;;;;0.60;0.60;;;16.60;71.00;;;;;;5052273;28;20387;-44
2021/05/17 00:15:41;;;;;;;0.73;0.73;;;16.60;71.00;;;;;;5052415;28;20048;-43
2021/05/17 00:18:07;;;;;;;1.88;1.00;;;16.60;71.00;;;;;;5051982;28;20486;-43
2021/05/17 00:20:34;;;;;;;1.23;0.80;;;16.60;71.00;;;;;;5051905;28;20421;-38
2021/05/17 00:23:00;;;;;;;0.88;0.82;;;16.60;71.00;;;;;;5051799;28;20057;-43
2021/05/17 00:25:27;;;;;;;0.50;0.50;;;16.60;71.00;;;;;;5051265;28;20067;-47
2021/05/17 00:27:55;;;;;;;0.85;0.60;;;16.50;71.00;;;;;;5051550;28;20052;-40
2021/05/17 00:30:24;;;;;;;0.77;0.65;;;16.60;71.00;;;;;;5052040;28;20045;-39
2021/05/17 00:32:50;;;;;;;0.82;0.60;;;16.60;71.10;;;;;;5051767;28;20084;-41
2021/05/17 00:35:17;;;;;;;0.80;0.60;;;16.60;71.10;;;;;;5051765;28;20049;-43
2021/05/17 00:37:44;;;;;;;1.15;0.70;;;16.60;71.10;;;;;;5051795;28;20056;-44
2021/05/17 00:40:11;;;;;;;1.40;0.80;;;16.60;71.10;;;;;;5051776;28;20064;-43
2021/05/17 00:42:38;;;;;;;0.57;0.50;;;16.60;71.10;;;;;;5051530;28;20497;-42
2021/05/17 00:45:07;;;;;;;0.60;0.60;;;16.60;71.10;;;;;;5051832;28;20044;-41
2021/05/17 00:47:38;;;;;;;1.35;0.70;;;16.60;71.10;;;;;;5052175;28;20049;-39
2021/05/17 00:50:08;;;;;;;2.13;1.05;;;16.60;71.10;;;;;;5051538;28;20041;-39
2021/05/17 00:52:34;;;;;;;0.50;0.50;;;16.60;71.10;;;;;;5051317;28;20049;-46
2021/05/17 00:55:01;;;;;;;0.95;0.73;;;16.50;71.10;;;;;;5051432;28;20052;-43
2021/05/17 00:57:27;;;;;;;1.60;0.80;;;16.60;71.10;;;;;;5051897;28;20045;-44
2021/05/17 00:59:52;;;;;;;0.77;0.70;;;16.60;71.10;;;;;;5052072;28;20537;-41
2021/05/17 01:02:18;;;;;;;1.85;0.75;;;16.50;71.10;;;;;;5051816;28;20044;-45
2021/05/17 01:04:44;;;;;;;1.10;0.93;;;16.60;71.10;;;;;;5051607;28;20516;-40
2021/05/17 01:07:10;;;;;;;1.23;0.80;;;16.60;71.20;;;;;;5051860;28;20049;-43
2021/05/17 01:09:39;;;;;;;0.70;0.70;;;16.50;71.10;;;;;;5051286;28;20128;-41
2021/05/17 01:12:06;;;;;;;1.10;0.60;;;16.50;71.10;;;;;;5031863;28;20048;-46
2021/05/17 01:14:33;;;;;;;1.25;0.98;;;16.50;71.10;;;;;;5031915;28;20052;-41
2021/05/17 01:17:01;;;;;;;1.85;0.80;;;16.60;71.10;;;;;;5048961;28;20053;-42
2021/05/17 01:19:59;;;;;;;0.88;0.57;;;16.50;71.10;;;;;;5051955;28;20053;-45
2021/05/17 01:22:36;;;;;;;0.60;0.60;;;16.50;71.10;;;;;;4970898;28;20047;-41
2021/05/17 01:25:02;;;;;;;1.48;0.85;;;16.60;71.20;;;;;;4970755;28;20129;-42
2021/05/17 01:27:29;;;;;;;1.27;0.95;;;16.50;71.80;;;;;;4970241;28;20507;-43
2021/05/17 01:29:56;;;;;;;0.93;0.63;;;16.60;71.20;;;;;;4970728;28;20058;-44
2021/05/17 01:32:22;;;;;;;1.13;0.90;;;16.50;71.10;;;;;;4970485;28;20047;-42
2021/05/17 01:34:49;;;;;;;0.93;0.70;;;16.50;71.10;;;;;;4970489;28;20129;-44
2021/05/17 01:37:16;;;;;;;0.75;0.70;;;16.50;71.10;;;;;;4972972;28;20146;-42
2021/05/17 01:39:43;;;;;;;0.70;0.70;;;16.50;71.10;;;;;;4974065;28;20047;-42
2021/05/17 01:42:10;;;;;;;0.65;0.60;;;16.50;71.10;;;;;;4973806;28;20085;-44
2021/05/17 01:44:39;;;;;;;0.85;0.73;;;16.50;71.10;;;;;;4973733;28;20074;-46
2021/05/17 01:47:05;;;;;;;0.75;0.75;;;16.50;71.80;;;;;;4973856;28;20554;-43
2021/05/17 01:49:31;;;;;;;0.85;0.70;;;16.50;71.10;;;;;;4973957;28;20187;-42
2021/05/17 01:51:57;;;;;;;0.82;0.82;;;16.50;71.20;;;;;;4973466;28;20047;-41
2021/05/17 01:54:30;;;;;;;1.00;0.80;;;16.50;71.20;;;;;;4973868;28;20094;-41
2021/05/17 01:56:56;;;;;;;0.50;0.50;;;16.50;71.20;;;;;;4973076;28;20051;-42
2021/05/17 01:59:30;;;;;;;0.95;0.70;;;16.50;71.20;;;;;;5016720;28;20438;-41
2021/05/17 02:01:56;;;;;;;1.05;0.80;;;16.50;71.20;;;;;;5055043;28;20044;-43
2021/05/17 02:04:24;;;;;;;0.82;0.65;;;16.50;71.20;;;;;;5054641;28;20136;-44
2021/05/17 02:06:50;;;;;;;0.63;0.60;;;16.50;71.20;;;;;;5054498;28;20049;-42
2021/05/17 02:09:17;;;;;;;0.55;0.55;;;16.50;71.20;;;;;;5054767;28;20101;-41
2021/05/17 02:11:43;;;;;;;0.68;0.68;;;16.50;71.20;;;;;;5054427;28;20048;-42
2021/05/17 02:14:10;;;;;;;0.73;0.73;;;16.50;71.20;;;;;;5054139;28;20502;-43
2021/05/17 02:16:36;;;;;;;0.93;0.60;;;16.50;71.20;;;;;;5053857;28;20048;-43
2021/05/17 02:19:02;;;;;;;1.10;0.88;;;16.50;71.20;;;;;;5054569;28;20053;-41
2021/05/17 02:21:28;;;;;;;0.90;0.70;;;16.50;71.20;;;;;;5054301;28;20049;-42
2021/05/17 02:23:55;;;;;;;0.70;0.70;;;16.50;71.20;;;;;;5054525;28;20049;-40
2021/05/17 02:26:21;;;;;;;0.75;0.68;;;16.50;71.20;;;;;;5053581;28;20500;-40
2021/05/17 02:28:46;;;;;;;1.33;0.75;;;16.50;71.20;;;;;;5053761;28;20080;-43
2021/05/17 02:31:13;;;;;;;0.73;0.70;;;16.50;71.20;;;;;;5054110;28;20049;-44
2021/05/17 02:33:39;;;;;;;1.20;0.77;;;16.50;71.20;;;;;;5053671;28;20041;-43
2021/05/17 02:36:07;;;;;;;0.80;0.77;;;16.50;71.20;;;;;;5053995;28;20045;-42
2021/05/17 02:38:33;;;;;;;1.02;0.70;;;16.50;71.30;;;;;;5053881;28;20053;-45
2021/05/17 02:40:59;;;;;;;0.65;0.65;;;16.50;71.30;;;;;;5053869;28;20150;-44
2021/05/17 02:43:27;;;;;;;0.60;0.60;;;16.50;71.20;;;;;;5053376;28;20049;-45
2021/05/17 02:45:53;;;;;;;1.15;0.90;;;16.50;71.20;;;;;;5033906;28;20049;-45
2021/05/17 02:48:26;;;;;;;0.88;0.70;;;16.50;71.30;;;;;;5039591;28;20091;-40
2021/05/17 02:50:52;;;;;;;1.05;0.85;;;16.50;71.20;;;;;;5053568;28;20059;-41
2021/05/17 02:53:33;;;;;;;1.13;0.80;;;16.50;71.20;;;;;;5053746;28;20123;-41
2021/05/17 02:56:09;;;;;;;0.50;0.50;;;16.50;71.30;;;;;;5053294;28;20077;-43
2021/05/17 02:58:45;;;;;;;1.60;0.68;;;16.50;71.30;;;;;;5052980;28;20099;-39
2021/05/17 03:01:48;;;;;;;0.50;0.50;;;16.50;71.30;;;;;;5053828;28;20053;-43
2021/05/17 03:04:18;;;;;;;1.23;0.82;;;16.50;71.30;;;;;;4953345;29;20134;-43
2021/05/17 03:07:03;;;;;;;1.42;0.80;;;16.50;71.30;;;;;;4953411;29;20114;-44
2021/05/17 03:09:32;;;;;;;1.48;0.70;;;16.50;71.30;;;;;;4952871;29;20078;-43
2021/05/17 03:12:00;;;;;;;0.60;0.60;;;16.40;71.20;;;;;;4953318;29;20055;-42
2021/05/17 03:14:29;;;;;;;1.48;0.80;;;16.50;71.30;;;;;;4952865;29;20079;-44
2021/05/17 03:16:57;;;;;;;0.73;0.70;;;16.40;71.30;;;;;;4953402;29;20135;-38
2021/05/17 03:19:24;;;;;;;1.02;0.73;;;16.40;71.20;;;;;;4952302;29;20163;-40
2021/05/17 03:21:53;;;;;;;0.60;0.60;;;16.40;71.20;;;;;;4953218;29;20106;-44
2021/05/17 03:24:22;;;;;;;0.70;0.70;;;16.40;71.30;;;;;;4952793;29;20087;-45
2021/05/17 03:26:49;;;;;;;0.90;0.70;;;16.40;71.30;;;;;;4952460;29;20058;-43
2021/05/17 03:29:15;;;;;;;0.98;0.80;;;16.40;71.30;;;;;;4953278;29;20404;-44
2021/05/17 03:31:41;;;;;;;0.57;0.47;;;16.40;71.30;;;;;;4952556;29;20094;-41
2021/05/17 03:34:07;;;;;;;0.60;0.60;;;16.40;71.30;;;;;;4952887;29;20051;-46
2021/05/17 03:36:32;;;;;;;0.82;0.80;;;16.40;71.30;;;;;;4952692;29;20452;-45
2021/05/17 03:38:58;;;;;;;0.80;0.70;;;16.30;71.20;;;;;;5036271;28;20057;-41
2021/05/17 03:41:24;;;;;;;1.00;0.70;;;16.40;71.30;;;;;;5052417;28;20049;-43
2021/05/17 03:43:49;;;;;;;0.98;0.85;;;16.40;71.30;;;;;;5052975;28;20405;-45
2021/05/17 03:46:16;;;;;;;0.88;0.88;;;16.40;71.30;;;;;;5052262;28;20041;-44
2021/05/17 03:48:42;;;;;;;0.77;0.60;;;16.40;71.30;;;;;;5052345;28;20045;-42
2021/05/17 03:51:11;;;;;;;1.25;0.90;;;16.40;71.30;;;;;;5051079;28;20528;-41
2021/05/17 03:53:38;;;;;;;0.85;0.70;;;16.40;71.30;;;;;;5050883;28;20048;-44
2021/05/17 03:56:04;;;;;;;0.82;0.60;;;16.40;71.30;;;;;;5051942;28;20187;-42
2021/05/17 03:58:36;;;;;;;0.60;0.60;;;16.40;71.30;;;;;;5051432;28;20552;-46
2021/05/17 04:01:02;;;;;;;1.15;0.80;;;16.40;71.30;;;;;;5051822;28;20379;-46
2021/05/17 04:03:28;;;;;;;0.88;0.77;;;16.40;71.30;;;;;;5051310;28;20041;-43
2021/05/17 04:13:57;;;;;;;0.88;0.80;;;16.40;71.30;;;;;;5052017;28;20072;-39
2021/05/17 04:16:23;;;;;;;1.25;0.80;;;16.40;71.30;;;;;;5051907;28;20520;-41
2021/05/17 04:18:50;;;;;;;1.17;0.90;;;16.40;71.30;;;;;;5052283;28;20048;-42
2021/05/17 04:21:16;;;;;;;0.70;0.60;;;16.40;71.30;;;;;;5052107;28;20397;-43
2021/05/17 04:23:42;;;;;;;1.00;1.00;;;16.40;71.40;;;;;;5052381;28;20042;-41
2021/05/17 04:26:08;;;;;;;1.10;0.88;;;16.40;71.30;;;;;;5051978;28;20544;-44
2021/05/17 04:28:34;;;;;;;0.80;0.80;;;16.40;71.30;;;;;;5051996;28;20053;-44
2021/05/17 04:31:00;;;;;;;0.75;0.68;;;16.50;71.40;;;;;;5052021;28;20557;-43
2021/05/17 04:33:26;;;;;;;1.15;0.77;;;16.40;71.40;;;;;;5052051;28;20123;-38
2021/05/17 04:35:52;;;;;;;0.60;0.60;;;16.40;71.40;;;;;;5051966;28;20485;-42
2021/05/17 04:38:18;;;;;;;0.73;0.60;;;16.40;71.40;;;;;;5052045;28;20057;-46
2021/05/17 04:40:46;;;;;;;0.68;0.57;;;16.40;71.40;;;;;;5051871;28;20485;-40
2021/05/17 04:43:12;;;;;;;0.70;0.70;;;16.40;71.40;;;;;;5051913;28;20044;-43
2021/05/17 04:45:38;;;;;;;0.77;0.77;;;16.40;71.40;;;;;;5051305;28;20053;-42
2021/05/17 04:48:04;;;;;;;1.17;0.82;;;16.50;71.40;;;;;;5051596;28;20048;-41
2021/05/17 04:50:30;;;;;;;0.73;0.73;;;16.40;71.40;;;;;;5051681;28;20052;-39
2021/05/17 04:52:56;;;;;;;0.63;0.63;;;16.40;71.40;;;;;;5051549;28;20069;-45
2021/05/17 04:55:21;;;;;;;0.98;0.70;;;16.40;71.40;;;;;;5051639;28;20146;-43
2021/05/17 04:57:47;;;;;;;1.05;0.80;;;16.30;71.40;;;;;;5051381;28;20124;-39
2021/05/17 05:00:13;;;;;;;0.57;0.57;;;16.30;71.40;;;;;;5051498;28;20053;-44
2021/05/17 05:02:40;;;;;;;0.75;0.75;;;16.40;71.40;;;;;;5051647;28;20041;-41
2021/05/17 05:05:07;;;;;;;1.77;0.95;;;16.30;71.40;;;;;;5051541;28;20056;-42
2021/05/17 05:07:33;;;;;;;1.15;0.80;;;16.40;71.40;;;;;;5051376;28;20052;-42
2021/05/17 05:09:59;;;;;;;0.75;0.75;;;16.40;71.40;;;;;;5051555;28;20045;-40
2021/05/17 05:12:24;;;;;;;1.10;0.90;;;16.40;71.40;;;;;;5054439;28;20071;-46
2021/05/17 05:14:50;;;;;;;0.80;0.80;;;16.30;71.40;;;;;;5055536;28;20056;-40
2021/05/17 05:17:15;;;;;;;1.10;0.85;;;16.30;71.40;;;;;;5055179;28;20049;-38
2021/05/17 05:19:41;;;;;;;0.80;0.80;;;16.30;71.40;;;;;;5055269;28;20106;-42
2021/05/17 05:22:07;;;;;;;1.00;0.88;;;16.40;71.40;;;;;;5054973;28;20076;-42
2021/05/17 05:24:32;;;;;;;0.80;0.80;;;16.30;71.40;;;;;;5055478;28;20037;-43
2021/05/17 05:34:35;;;;;;;0.95;0.88;;;16.30;71.40;;;;;;5054514;28;20045;-42
2021/05/17 05:37:01;;;;;;;0.95;0.88;;;16.30;71.40;;;;;;5054941;28;20132;-42
2021/05/17 05:39:27;;;;;;;0.80;0.80;;;16.30;71.40;;;;;;5054703;28;20136;-45
2021/05/17 05:41:53;;;;;;;0.70;0.70;;;16.30;71.40;;;;;;5054457;28;20125;-41
2021/05/17 05:44:19;;;;;;;1.52;0.85;;;16.30;71.40;;;;;;5054603;28;20144;-38
2021/05/17 05:46:45;;;;;;;1.00;0.90;;;16.30;71.40;;;;;;5055248;28;20052;-42
2021/05/17 05:49:11;;;;;;;1.05;0.80;;;16.30;71.40;;;;;;5054282;28;20053;-37
2021/05/17 05:51:37;;;;;;;0.93;0.90;;;16.40;71.40;;;;;;5054529;28;20095;-43
2021/05/17 05:54:04;;;;;;;0.90;0.90;;;16.30;71.40;;;;;;5054613;28;20041;-43
2021/05/17 05:56:30;;;;;;;0.88;0.70;;;16.30;71.40;;;;;;5054459;28;20517;-40
2021/05/17 05:58:56;;;;;;;1.00;0.90;;;16.30;71.40;;;;;;5054281;28;20041;-47
2021/05/17 06:01:22;;;;;;;1.02;0.95;;;16.30;71.40;;;;;;5054680;28;20059;-44
2021/05/17 06:03:48;;;;;;;1.13;0.75;;;16.30;71.40;;;;;;5054166;28;20454;-45
2021/05/17 06:06:14;;;;;;;1.15;0.98;;;16.30;71.40;;;;;;5054139;28;20048;-44
2021/05/17 06:08:41;;;;;;;0.82;0.70;;;16.30;71.40;;;;;;5054745;28;20079;-44
2021/05/17 06:11:08;;;;;;;1.00;0.90;;;16.30;71.40;;;;;;5054153;28;20041;-45
2021/05/17 06:13:36;;;;;;;1.08;0.80;;;16.20;71.40;;;;;;5054221;28;20059;-44
2021/05/17 06:16:03;;;;;;;0.98;0.93;;;16.30;71.40;;;;;;5053900;28;20135;-45
2021/05/17 06:18:29;;;;;;;1.10;1.00;;;16.30;71.40;;;;;;5054018;28;20505;-45
2021/05/17 06:20:55;;;;;;;1.02;1.00;;;16.30;71.40;;;;;;5053981;28;20389;-42
2021/05/17 06:23:21;;;;;;;0.95;0.80;;;16.30;71.40;;;;;;5053943;28;20045;-39
2021/05/17 06:25:49;;;;;;;1.30;1.00;;;16.30;71.40;;;;;;5053577;28;20501;-39
2021/05/17 06:28:19;;;;;;;0.70;0.70;;;16.40;71.50;;;;;;5054329;28;20060;-44
2021/05/17 06:30:52;;;;;;;0.88;0.82;;;16.30;71.40;;;;;;5054132;28;20047;-42
2021/05/17 06:33:19;;;;;;;1.00;0.90;;;16.30;71.40;;;;;;5054136;28;20144;-41
2021/05/17 06:35:46;;;;;;;0.90;0.90;;;16.40;71.50;;;;;;5053410;28;20059;-41
2021/05/17 06:38:15;;;;;;;1.55;0.82;;;16.30;71.40;;;;;;5053643;28;20048;-47
2021/05/17 06:40:42;;;;;;;1.10;1.00;;;16.30;71.40;;;;;;5053736;28;20433;-45
2021/05/17 06:43:08;;;;;;;0.90;0.90;;;16.30;71.40;;;;;;5052518;28;20040;-37
2021/05/17 06:45:35;;;;;;;0.82;0.82;;;16.30;71.40;;;;;;5042976;28;20129;-41
2021/05/17 06:48:01;;;;;;;1.17;1.00;;;16.30;71.40;;;;;;5054220;28;20049;-41
2021/05/17 06:50:27;;;;;;;0.95;0.85;;;16.30;71.40;;;;;;5039700;28;20401;-41
2021/05/17 06:52:54;;;;;;;1.10;0.98;;;16.40;71.50;;;;;;5033776;28;20050;-41
2021/05/17 06:55:23;;;;;;;1.00;0.90;;;16.30;71.40;;;;;;5033800;28;20132;-38
2021/05/17 07:00:29;;;;;;;0.80;0.80;;;16.30;71.40;;;;;;5033856;28;20053;-41
2021/05/17 07:03:13;;;;;;;1.20;1.00;;;16.30;71.50;;;;;;5049896;28;20041;-39
2021/05/17 07:05:41;;;;;;;1.15;1.05;;;16.30;71.40;;;;;;5053547;28;20052;-42
2021/05/17 07:13:19;;;;;;;9.27;5.47;;;16.30;71.40;;;;;;5053428;28;20378;-42
2021/05/17 07:15:46;;;;;;;7.47;5.47;;;16.20;71.30;;;;;;5053421;28;20114;-40
2021/05/17 07:18:12;;;;;;;8.55;5.38;;;16.10;71.40;;;;;;5053164;28;20106;-43
2021/05/17 07:25:52;;;;;;;6.30;3.13;;;16.10;71.50;;;;;;5053155;28;20493;-39
2021/05/17 07:28:19;;;;;;;4.97;3.42;;;16.10;71.50;;;;;;5052819;28;20298;-40
2021/05/17 07:30:46;;;;;;;5.45;3.78;;;16.20;71.50;;;;;;5053251;28;20049;-41
2021/05/17 07:33:12;;;;;;;5.00;4.03;;;16.20;71.50;;;;;;5052870;28;20044;-41
2021/05/17 07:35:37;;;;;;;4.90;3.58;;;16.20;71.50;;;;;;5052477;28;20055;-42
2021/05/17 07:38:04;;;;;;;6.63;3.75;;;16.20;71.50;;;;;;5052376;28;20032;-42
2021/05/17 07:40:30;;;;;;;4.97;3.88;;;16.20;71.60;;;;;;5053320;28;20053;-42
2021/05/17 07:42:56;;;;;;;3.53;3.22;;;16.20;71.60;;;;;;5052993;28;20052;-40
2021/05/17 07:45:22;;;;;;;5.65;3.50;;;16.20;71.50;;;;;;5034908;28;20041;-41
2021/05/17 07:47:48;;;;;;;6.53;4.78;;;16.20;71.50;;;;;;5052574;28;20057;-41
2021/05/17 07:50:15;;;;;;;8.48;4.43;;;16.20;72.20;;;;;;5051572;28;20455;-43
2021/05/17 07:52:41;;;;;;;4.50;3.95;;;16.20;71.60;;;;;;5052210;28;20076;-41
2021/05/17 07:55:07;;;;;;;4.78;4.07;;;16.20;71.60;;;;;;5052662;28;20507;-42
2021/05/17 07:57:32;;;;;;;6.50;3.95;;;16.20;71.70;;;;;;5052680;28;20049;-47
2021/05/17 07:59:58;;;;;;;5.40;3.97;;;16.20;71.70;;;;;;5052322;28;20060;-44
2021/05/17 08:02:24;;;;;;;4.82;3.63;;;16.20;71.70;;;;;;5052284;28;20490;-41
2021/05/17 08:04:51;;;;;;;4.95;3.83;;;16.20;71.70;;;;;;5052266;28;20045;-45
2021/05/17 08:07:20;;;;;;;4.80;3.47;;;16.20;71.70;;;;;;5052093;28;20061;-41
2021/05/17 08:09:46;;;;;;;4.57;4.07;;;16.20;71.70;;;;;;5052155;28;20048;-39
2021/05/17 08:12:12;;;;;;;4.18;3.55;;;16.20;71.80;;;;;;5052411;28;20045;-46
2021/05/17 08:14:38;;;;;;;5.63;3.70;;;16.20;71.70;;;;;;5052447;28;20053;-43
2021/05/17 08:17:05;;;;;;;5.50;3.80;;;16.20;71.70;;;;;;5040535;28;20095;-42
2021/05/17 08:19:32;;;;;;;4.88;3.80;;;16.20;71.70;;;;;;5052032;28;20057;-41
2021/05/17 08:21:58;;;;;;;4.88;4.03;;;16.20;71.80;;;;;;5045200;28;20046;-39
2021/05/17 08:24:25;;;;;;;3.92;3.47;;;16.20;71.70;;;;;;5032039;28;20119;-47
2021/05/17 08:26:52;;;;;;;4.40;3.70;;;16.20;71.70;;;;;;5032573;28;20132;-46
2021/05/17 08:29:19;;;;;;;5.60;4.05;;;16.20;71.70;;;;;;5032388;28;20056;-43
2021/05/17 08:31:48;;;;;;;4.03;3.20;;;16.30;71.70;;;;;;5032557;28;20049;-43
2021/05/17 08:34:14;;;;;;;3.65;3.05;;;16.20;71.70;;;;;;5040155;28;20056;-45
2021/05/17 08:36:39;;;;;;;3.70;3.25;;;16.20;71.70;;;;;;5052074;28;20516;-45
2021/05/17 08:39:07;;;;;;;3.90;3.20;;;16.20;71.70;;;;;;5051862;28;20049;-44
2021/05/17 08:41:34;;;;;;;4.30;3.70;;;16.30;71.70;;;;;;5052134;28;20064;-42
2021/05/17 08:44:01;;;;;;;3.53;3.22;;;16.10;71.60;;;;;;5052364;28;20057;-44
2021/05/17 08:46:28;;;;;;;3.85;2.80;;;16.30;71.70;;;;;;5055198;28;20045;-43
2021/05/17 08:48:53;;;;;;;3.30;3.00;;;16.20;71.60;;;;;;5056210;28;20045;-43
2021/05/17 08:51:33;;;;;;;3.55;2.65;;;16.30;71.70;;;;;;5055639;28;20118;-41
2021/05/17 08:54:03;;;;;;;3.65;2.80;;;16.30;71.70;;;;;;5055887;28;20338;-42
2021/05/17 08:56:29;;;;;;;3.38;2.80;;;16.30;71.70;;;;;;5056054;28;20144;-42
2021/05/17 08:58:57;;;;;;;4.63;3.10;;;16.30;71.70;;;;;;5055770;28;20505;-41
2021/05/17 09:01:23;;;;;;;3.78;2.95;;;16.30;71.70;;;;;;5048755;28;20041;-41
2021/05/17 09:04:05;;;;;;;4.30;2.80;;;16.30;71.60;;;;;;5057222;28;20536;-39
2021/05/17 09:06:42;;;;;;;3.58;3.08;;;16.30;71.70;;;;;;5034826;28;20057;-42
2021/05/17 09:09:22;;;;;;;3.33;2.40;;;16.30;71.70;;;;;;5045618;28;20049;-42
2021/05/17 09:11:52;;;;;;;4.00;2.80;;;16.30;71.60;;;;;;5054725;28;20394;-40
2021/05/17 09:14:18;;;;;;;3.25;2.55;;;16.30;72.30;;;;;;5055063;28;20053;-42
2021/05/17 09:16:51;;;;;;;2.90;2.60;;;16.30;71.60;;;;;;5054871;28;20053;-40
2021/05/17 09:19:17;;;;;;;3.58;2.70;;;16.30;71.60;;;;;;5054710;28;20048;-43
2021/05/17 09:22:03;;;;;;;2.83;2.42;;;16.40;71.70;;;;;;5054797;28;20079;-43
2021/05/17 09:24:32;;;;;;;3.15;2.45;;;16.30;71.60;;;;;;5054567;28;20052;-40
2021/05/17 09:26:58;;;;;;;3.22;2.60;;;16.30;71.60;;;;;;5054667;28;20120;-44
2021/05/17 09:29:24;;;;;;;3.40;3.10;;;16.40;71.70;;;;;;5054547;28;20405;-39
2021/05/17 09:31:50;;;;;;;3.75;2.60;;;16.30;71.60;;;;;;5054608;28;20049;-40
2021/05/17 09:34:15;;;;;;;3.65;2.40;;;16.40;71.70;;;;;;5054927;28;20442;-40
2021/05/17 09:36:41;;;;;;;2.58;2.38;;;16.50;71.70;;;;;;5054733;28;20049;-44
2021/05/17 09:39:07;;;;;;;3.22;2.90;;;16.30;71.60;;;;;;5054815;28;20080;-42
2021/05/17 09:41:48;;;;;;;3.28;2.67;;;16.40;71.70;;;;;;5054083;28;20045;-42
2021/05/17 09:44:17;;;;;;;3.10;2.53;;;16.40;71.60;;;;;;5054672;28;20076;-42
2021/05/17 09:47:14;;;;;;;3.00;2.35;;;16.40;71.60;;;;;;5054586;28;20421;-45
2021/05/17 09:49:48;;;;;;;3.42;2.50;;;16.40;71.60;;;;;;5054781;28;20405;-45
2021/05/17 09:52:28;;;;;;;2.60;2.20;;;16.40;71.60;;;;;;5054445;28;20053;-45
2021/05/17 09:55:05;;;;;;;2.45;1.90;;;16.40;71.60;;;;;;5053888;28;20071;-43
2021/05/17 09:57:37;;;;;;;2.65;2.10;;;16.40;71.60;;;;;;5053506;28;20464;-45
2021/05/17 10:00:29;;;;;;;2.33;1.88;;;16.40;71.60;;;;;;5054515;28;20073;-47
2021/05/17 10:02:56;;;;;;;2.60;2.28;;;16.40;71.50;;;;;;5036254;28;20057;-46
2021/05/17 10:05:24;;;;;;;2.30;2.10;;;16.50;71.60;;;;;;5036138;28;20122;-44
2021/05/17 10:08:03;;;;;;;2.03;1.83;;;16.50;71.50;;;;;;5054281;28;20052;-42
2021/05/17 10:10:31;;;;;;;2.13;1.92;;;16.50;71.50;;;;;;5054741;28;20044;-45
2021/05/17 10:13:02;;;;;;;2.28;2.08;;;16.50;71.50;;;;;;5053195;28;20473;-46
2021/05/17 10:15:30;;;;;;;2.15;1.95;;;16.50;71.50;;;;;;5053409;28;20052;-46
2021/05/17 10:17:59;;;;;;;3.28;2.03;;;16.50;71.50;;;;;;5053843;28;20596;-47
2021/05/17 10:20:26;;;;;;;2.22;1.83;;;16.50;71.50;;;;;;5053467;28;20041;-44
2021/05/17 10:22:54;;;;;;;1.80;1.65;;;16.50;72.20;;;;;;5053762;28;20071;-40
2021/05/17 10:25:32;;;;;;;2.72;2.05;;;16.50;71.50;;;;;;5034051;28;20076;-45
2021/05/17 10:28:07;;;;;;;2.30;2.10;;;16.50;71.50;;;;;;5033065;28;20395;-46
2021/05/17 10:30:35;;;;;;;2.47;2.00;;;16.40;71.40;;;;;;5034268;28;20057;-45
2021/05/17 10:33:02;;;;;;;3.00;2.30;;;16.50;71.50;;;;;;5033981;28;20145;-45
2021/05/17 10:35:35;;;;;;;2.22;2.00;;;16.50;71.50;;;;;;5051327;28;20071;-47
2021/05/17 10:38:33;;;;;;;2.13;1.92;;;16.50;71.50;;;;;;5053847;28;20071;-46
2021/05/17 10:41:45;;;;;;;1.55;1.45;;;16.50;71.40;;;;;;5053976;28;20054;-45
2021/05/17 10:46:36;;;;;;;2.78;1.80;;;16.50;71.40;;;;;;4972557;28;20166;-44
2021/05/17 10:47:00;;;;;;;2.15;1.60;;;16.50;71.40;;;;;;4948225;29;20082;-44
2021/05/17 10:49:32;;;;;;;3.28;1.70;;;16.60;71.50;;;;;;4949678;29;20504;-41
2021/05/17 10:52:04;;;;;;;1.63;1.52;;;16.60;71.40;;;;;;4949126;29;20086;-41
2021/05/17 10:54:32;;;;;;;2.38;1.70;;;16.60;71.40;;;;;;4948853;29;20126;-45
2021/05/17 10:57:04;;;;;;;1.55;1.40;;;16.60;71.40;;;;;;4967264;28;20824;-44
2021/05/17 11:02:45;;;;;;;2.08;1.70;;;16.60;71.40;;;;;;4968495;28;20047;-41
2021/05/17 11:05:15;;;;;;;2.35;1.40;;;16.60;71.40;;;;;;4968117;28;20046;-44
2021/05/17 11:07:52;;;;;;;1.83;1.55;;;16.60;71.40;;;;;;4967077;28;20163;-40
2021/05/17 11:10:22;;;;;;;2.38;1.48;;;16.60;71.40;;;;;;4967565;28;20043;-44
2021/05/17 11:13:00;;;;;;;2.03;1.60;;;16.60;71.40;;;;;;4968060;28;20050;-45
2021/05/17 11:15:46;;;;;;;1.80;1.35;;;16.60;71.40;;;;;;4968239;28;20166;-41
2021/05/17 11:18:12;;;;;;;1.40;1.30;;;16.60;71.40;;;;;;4966897;28;20058;-40
2021/05/17 11:20:39;;;;;;;1.88;1.60;;;16.70;71.40;;;;;;5003105;28;20056;-42
2021/05/17 11:23:22;;;;;;;1.38;1.20;;;16.60;71.40;;;;;;5033167;28;20529;-42
2021/05/17 11:25:50;;;;;;;1.27;1.20;;;16.60;71.40;;;;;;5049246;28;20510;-39
2021/05/17 11:28:36;;;;;;;1.75;1.40;;;16.60;71.40;;;;;;5049305;28;20052;-42
2021/05/17 11:33:57;;;;;;;2.08;1.50;;;16.60;71.40;;;;;;5147527;27;20046;-41
2021/05/17 11:36:38;;;;;;;1.50;1.40;;;16.60;71.40;;;;;;5147476;27;20123;-41
2021/05/17 11:39:19;;;;;;;1.50;1.40;;;16.70;71.40;;;;;;5147584;27;20042;-44
2021/05/17 11:41:55;;;;;;;1.63;1.25;;;16.70;71.40;;;;;;5147401;27;20070;-43
2021/05/17 11:44:22;;;;;;;1.30;1.20;;;16.70;71.40;;;;;;5147443;27;20051;-44
2021/05/17 11:46:55;;;;;;;1.70;1.50;;;16.70;71.40;;;;;;5147665;27;20046;-42
2021/05/17 11:49:22;;;;;;;1.65;1.52;;;16.70;71.40;;;;;;5146830;27;20070;-40
2021/05/17 11:51:51;;;;;;;1.27;1.10;;;16.70;71.40;;;;;;5147280;27;20050;-42
2021/05/17 11:54:18;;;;;;;1.20;1.10;;;16.70;71.40;;;;;;5147279;27;20152;-41
2021/05/17 11:56:46;;;;;;;1.30;1.20;;;16.70;71.40;;;;;;5151123;27;20074;-42
2021/05/17 11:59:17;;;;;;;2.05;1.33;;;16.60;71.30;;;;;;5150510;27;20039;-46
2021/05/17 12:01:45;;;;;;;1.83;1.40;;;16.70;71.40;;;;;;5150960;27;20054;-44
2021/05/17 12:04:20;;;;;;;1.40;1.27;;;16.70;71.40;;;;;;5151029;27;20043;-47
2021/05/17 12:06:54;;;;;;;;;;;16.70;71.40;;;;;;5151390;27;20126;-44
2021/05/17 12:09:29;;;;;;;1.30;1.20;;;16.70;71.40;;;;;;5150417;27;19961;-43
2021/05/17 12:11:54;;;;;;;1.50;1.40;;;16.70;71.40;;;;;;5150698;27;20043;-45
2021/05/17 12:14:20;;;;;;;1.48;1.20;;;16.70;71.30;;;;;;5150358;27;20035;-46
2021/05/17 12:17:18;;;;;;;1.23;1.10;;;16.70;71.40;;;;;;5150430;27;20487;-47
2021/05/17 12:19:47;;;;;;;1.73;1.42;;;16.70;71.30;;;;;;5149774;27;20039;-44
2021/05/17 12:22:17;;;;;;;1.95;1.42;;;16.70;71.30;;;;;;5150308;27;20096;-44
2021/05/17 12:24:43;;;;;;;1.48;1.38;;;16.70;71.30;;;;;;5150241;27;20039;-48
2021/05/17 12:27:10;;;;;;;2.05;1.30;;;16.70;71.40;;;;;;5150390;27;20175;-44
2021/05/17 12:29:55;;;;;;;1.20;1.10;;;16.80;71.40;;;;;;5149552;27;20051;-41
2021/05/17 12:32:42;;;;;;;1.38;1.27;;;16.70;71.30;;;;;;5129607;27;20047;-43
2021/05/17 12:35:09;;;;;;;1.42;1.33;;;16.70;71.30;;;;;;5128999;27;20502;-44
2021/05/17 12:37:43;;;;;;;1.70;1.60;;;16.70;71.30;;;;;;5129533;27;20047;-44
2021/05/17 12:40:27;;;;;;;1.75;1.38;;;16.70;71.30;;;;;;5129353;27;20039;-47
2021/05/17 12:43:34;;;;;;;1.75;1.38;;;16.70;71.30;;;;;;5115722;28;20071;-45
2021/05/17 12:46:02;;;;;;;1.30;1.20;;;16.70;71.30;;;;;;5115225;28;20050;-45
2021/05/17 12:48:43;;;;;;;1.42;1.33;;;16.70;71.30;;;;;;5127343;27;20039;-43
2021/05/17 12:51:11;;;;;;;1.50;1.40;;;16.70;71.30;;;;;;5136327;27;20191;-45
2021/05/17 12:53:37;;;;;;;1.50;1.23;;;16.80;71.30;;;;;;5136221;27;20043;-44
2021/05/17 12:56:03;;;;;;;1.63;1.38;;;16.80;71.30;;;;;;5136084;27;20479;-44
2021/05/17 12:58:37;;;;;;;1.20;1.10;;;16.80;71.30;;;;;;5135873;27;20051;-47
2021/05/17 13:01:11;;;;;;;1.20;1.10;;;16.70;71.30;;;;;;5135466;27;20043;-46
2021/05/17 13:03:43;;;;;;;1.25;1.15;;;16.70;71.20;;;;;;5135726;27;20074;-46
2021/05/17 13:06:30;;;;;;;1.90;1.10;;;16.70;71.20;;;;;;5135927;27;20043;-47
2021/05/17 13:09:02;;;;;;;1.27;1.17;;;16.80;71.30;;;;;;5135910;27;20050;-47
2021/05/17 13:11:39;;;;;;;1.35;1.25;;;16.80;71.30;;;;;;5135715;27;20503;-42
2021/05/17 13:14:12;;;;;;;1.30;1.20;;;16.80;71.30;;;;;;5135559;27;20050;-46
2021/05/17 13:16:43;;;;;;;1.10;1.00;;;16.80;71.20;;;;;;5135486;27;20376;-45
2021/05/17 13:32:28;;;;;;;6.63;4.80;;;16.70;70.90;;;;;;5134359;27;20062;-46
2021/05/17 13:34:54;;;;;;;7.22;4.68;;;16.70;71.00;;;;;;5134172;27;20103;-44
2021/05/17 13:37:20;;;;;;;7.68;4.53;;;16.70;71.00;;;;;;5134564;27;20070;-46
2021/05/17 13:39:46;;;;;;;8.23;4.70;;;16.70;71.60;;;;;;5134803;27;20070;-44
2021/05/17 13:42:12;;;;;;;6.65;3.92;;;16.70;71.00;;;;;;5134372;27;20546;-44
2021/05/17 13:44:37;;;;;;;7.00;4.78;;;16.70;71.00;;;;;;5134318;27;20042;-43
2021/05/17 13:47:03;;;;;;;5.60;4.38;;;16.70;71.00;;;;;;5134089;27;20047;-46